To NAV CANADA Home Page Login to a new session Search on AWWS site Feedback and Comments Disclaimer Vers la page française équivalente Tips FAQ What's new on the site To the Forecasts and Observations / NOTAM section To "File a Flight Plan" website Publications and other links Update of the User's profile FIC Telephone Numbers My Weather Data Folder Route Weather Data Regional Weather Data Local Weather Data To the Forecasts and Observations / NOTAM section
Request Generated 04/16/2014 at 21:52:35 UTC . Weather information available at that time is displayed.

METAR/TAF

KINGSTON/ON    

METAR CYGK 162100Z 19015KT 15SM FEW040 SCT250 M01/M08 A3052 RMK
SC1CI2 SLP342=
METAR CYGK 162000Z 18013KT 15SM FEW040 M01/M07 A3051 RMK SC1 SLP338=
METAR CYGK 161900Z 19016KT 15SM FEW040 FEW250 M02/M07 A3053 RMK
SC2CI1 CI TR SLP343=

TAF CYGK 161938Z 1620/1703 18012KT P6SM SCT050
BECMG 1622/1624 VRB03KT
RMK NXT FCST WILL BE ISSUED AT 171145Z=
Your time UTC time
Weather data provided by Environment Canada and NAV CANADA